< < Back
Terminal Aerodrome Forecast


Current Version              Previous Versions:   1  2  3  4  5  6  7  8  9  

Terminal Aerodrome Forecast

600
FTUS42 KMLB 020200 AAA
TAFMCO
TAF AMD
KMCO 020251Z 0203/0224 VRB03KT P6SM FEW250
     FM021400 10005KT P6SM SCT025
     FM021900 10009KT P6SM SCT050=

Latest METAR

664
SAUS70 KWBC 010700 RRX
MTRMCO
METAR KMCO 020653Z 00000KT 10SM SCT029 SCT035 26/24 A3008 RMK AO2 SLP185
T02560239


USA.gov is the U.S. government's official web portal to all federal, state and local government web resources and services.